sensor_id;sensor_type;location;lat;lon;timestamp;pressure;altitude;pressure_sealevel;temperature;humidity
1694;BME280;71975;47.068;15.408;2024-01-07T00:03:07;95982.41;;;7.70;70.95
1694;BME280;71975;47.068;15.408;2024-01-07T00:08:10;95965.06;;;7.87;71.04
1694;BME280;71975;47.068;15.408;2024-01-07T00:13:13;95950.41;;;7.88;69.45
1694;BME280;71975;47.068;15.408;2024-01-07T00:18:18;95965.13;;;7.83;70.34
1694;BME280;71975;47.068;15.408;2024-01-07T00:23:21;95955.19;;;7.96;69.62
1694;BME280;71975;47.068;15.408;2024-01-07T00:28:24;95949.75;;;7.84;69.13
1694;BME280;71975;47.068;15.408;2024-01-07T00:33:30;95948.72;;;7.94;68.18
1694;BME280;71975;47.068;15.408;2024-01-07T00:38:33;95936.34;;;7.96;67.57
1694;BME280;71975;47.068;15.408;2024-01-07T00:43:36;95947.78;;;8.00;67.49
1694;BME280;71975;47.068;15.408;2024-01-07T00:48:40;95942.38;;;8.00;67.08
1694;BME280;71975;47.068;15.408;2024-01-07T00:53:44;95939.69;;;8.00;67.44
1694;BME280;71975;47.068;15.408;2024-01-07T00:58:46;95932.63;;;7.90;66.77
1694;BME280;71975;47.068;15.408;2024-01-07T01:03:51;95942.06;;;7.98;66.97
1694;BME280;71975;47.068;15.408;2024-01-07T01:08:54;95944.59;;;7.89;66.40
1694;BME280;71975;47.068;15.408;2024-01-07T01:13:57;95943.03;;;8.04;65.26
1694;BME280;71975;47.068;15.408;2024-01-07T01:19:01;95943.41;;;7.90;66.38
1694;BME280;71975;47.068;15.408;2024-01-07T01:24:04;95937.19;;;7.93;65.74
1694;BME280;71975;47.068;15.408;2024-01-07T01:29:07;95951.31;;;7.97;65.45
1694;BME280;71975;47.068;15.408;2024-01-07T01:34:12;95945.22;;;8.10;64.00
1694;BME280;71975;47.068;15.408;2024-01-07T01:39:15;95923.59;;;8.13;64.35
1694;BME280;71975;47.068;15.408;2024-01-07T01:44:18;95931.59;;;8.00;64.07
1694;BME280;71975;47.068;15.408;2024-01-07T01:49:22;95931.53;;;8.04;63.75
1694;BME280;71975;47.068;15.408;2024-01-07T01:54:26;95925.38;;;8.03;64.45
1694;BME280;71975;47.068;15.408;2024-01-07T01:59:29;95914.56;;;8.20;63.48
1694;BME280;71975;47.068;15.408;2024-01-07T02:04:33;95914.41;;;8.11;63.01
1694;BME280;71975;47.068;15.408;2024-01-07T02:09:37;95916.06;;;8.21;62.49
1694;BME280;71975;47.068;15.408;2024-01-07T02:14:41;95925.97;;;8.11;61.93
1694;BME280;71975;47.068;15.408;2024-01-07T02:19:46;95919.22;;;8.03;62.34
1694;BME280;71975;47.068;15.408;2024-01-07T02:24:50;95903.25;;;8.25;61.43
1694;BME280;71975;47.068;15.408;2024-01-07T02:29:53;95917.25;;;8.20;61.50
1694;BME280;71975;47.068;15.408;2024-01-07T02:34:56;95914.19;;;8.34;61.29
1694;BME280;71975;47.068;15.408;2024-01-07T02:40:00;95919.69;;;8.30;60.74
1694;BME280;71975;47.068;15.408;2024-01-07T02:45:04;95911.28;;;8.28;61.38
1694;BME280;71975;47.068;15.408;2024-01-07T02:50:07;95915.63;;;8.22;61.15
1694;BME280;71975;47.068;15.408;2024-01-07T02:55:12;95909.69;;;8.15;61.17
1694;BME280;71975;47.068;15.408;2024-01-07T03:00:15;95914.63;;;8.32;61.69
1694;BME280;71975;47.068;15.408;2024-01-07T03:05:18;95907.63;;;8.19;60.50
1694;BME280;71975;47.068;15.408;2024-01-07T03:10:23;95910.84;;;8.30;60.56
1694;BME280;71975;47.068;15.408;2024-01-07T03:15:26;95919.09;;;8.23;61.09
1694;BME280;71975;47.068;15.408;2024-01-07T03:20:29;95918.41;;;8.35;60.03
1694;BME280;71975;47.068;15.408;2024-01-07T03:25:33;95918.41;;;8.19;60.69
1694;BME280;71975;47.068;15.408;2024-01-07T03:30:37;95915.72;;;8.19;60.80
1694;BME280;71975;47.068;15.408;2024-01-07T03:35:40;95920.28;;;8.22;60.00
1694;BME280;71975;47.068;15.408;2024-01-07T03:40:44;95926.34;;;8.26;60.38
1694;BME280;71975;47.068;15.408;2024-01-07T03:45:48;95933.50;;;8.32;60.58
1694;BME280;71975;47.068;15.408;2024-01-07T03:50:51;95930.41;;;8.18;61.07
1694;BME280;71975;47.068;15.408;2024-01-07T03:55:55;95930.16;;;8.12;61.85
1694;BME280;71975;47.068;15.408;2024-01-07T04:00:58;95937.19;;;8.22;61.37
1694;BME280;71975;47.068;15.408;2024-01-07T04:06:06;95937.13;;;8.26;61.40
1694;BME280;71975;47.068;15.408;2024-01-07T04:11:11;95947.91;;;8.26;61.82
1694;BME280;71975;47.068;15.408;2024-01-07T04:16:16;95949.44;;;8.27;62.25
1694;BME280;71975;47.068;15.408;2024-01-07T04:21:20;95957.34;;;8.18;62.82
1694;BME280;71975;47.068;15.408;2024-01-07T04:26:24;95958.09;;;8.18;62.86
1694;BME280;71975;47.068;15.408;2024-01-07T04:31:27;95966.88;;;8.06;63.41
1694;BME280;71975;47.068;15.408;2024-01-07T04:36:30;95975.88;;;8.16;63.55
1694;BME280;71975;47.068;15.408;2024-01-07T04:41:35;95978.94;;;8.01;64.51
1694;BME280;71975;47.068;15.408;2024-01-07T04:46:38;95985.50;;;8.00;65.63
1694;BME280;71975;47.068;15.408;2024-01-07T04:51:41;95989.34;;;7.99;66.17
1694;BME280;71975;47.068;15.408;2024-01-07T04:56:46;95991.41;;;7.95;66.21
1694;BME280;71975;47.068;15.408;2024-01-07T05:01:49;95993.59;;;7.84;67.31
1694;BME280;71975;47.068;15.408;2024-01-07T05:06:52;95999.22;;;7.58;68.09
1694;BME280;71975;47.068;15.408;2024-01-07T05:11:56;95998.28;;;7.80;68.28
1694;BME280;71975;47.068;15.408;2024-01-07T05:16:59;96004.03;;;7.66;69.02
1694;BME280;71975;47.068;15.408;2024-01-07T05:22:02;96006.88;;;7.59;69.94
1694;BME280;71975;47.068;15.408;2024-01-07T05:27:06;96004.50;;;7.61;69.79
1694;BME280;71975;47.068;15.408;2024-01-07T05:32:09;96003.69;;;7.48;70.11
1694;BME280;71975;47.068;15.408;2024-01-07T05:37:12;96009.63;;;7.56;70.51
1694;BME280;71975;47.068;15.408;2024-01-07T05:42:16;96015.59;;;7.31;71.25
1694;BME280;71975;47.068;15.408;2024-01-07T05:47:20;96024.72;;;7.53;70.52
1694;BME280;71975;47.068;15.408;2024-01-07T05:52:23;96020.00;;;7.41;71.19
1694;BME280;71975;47.068;15.408;2024-01-07T05:57:28;96029.44;;;7.29;71.56
1694;BME280;71975;47.068;15.408;2024-01-07T06:02:31;96020.72;;;7.42;71.38
1694;BME280;71975;47.068;15.408;2024-01-07T06:07:34;96017.94;;;7.29;71.66
1694;BME280;71975;47.068;15.408;2024-01-07T06:12:38;96029.38;;;7.33;71.33
1694;BME280;71975;47.068;15.408;2024-01-07T06:17:41;96032.34;;;7.39;71.99
1694;BME280;71975;47.068;15.408;2024-01-07T06:22:44;96044.44;;;7.30;71.81
1694;BME280;71975;47.068;15.408;2024-01-07T06:27:48;96033.25;;;7.12;71.94
1694;BME280;71975;47.068;15.408;2024-01-07T06:32:52;96046.34;;;7.30;71.90
1694;BME280;71975;47.068;15.408;2024-01-07T06:37:55;96045.28;;;7.08;72.16
1694;BME280;71975;47.068;15.408;2024-01-07T06:42:59;96045.06;;;7.18;72.55
1694;BME280;71975;47.068;15.408;2024-01-07T06:48:03;96053.84;;;7.03;72.75
1694;BME280;71975;47.068;15.408;2024-01-07T06:53:06;96050.88;;;7.17;72.37
1694;BME280;71975;47.068;15.408;2024-01-07T06:58:10;96051.38;;;7.12;72.73
1694;BME280;71975;47.068;15.408;2024-01-07T07:03:13;96052.88;;;7.13;71.85
1694;BME280;71975;47.068;15.408;2024-01-07T07:08:16;96056.66;;;6.96;73.37
1694;BME280;71975;47.068;15.408;2024-01-07T07:13:21;96057.56;;;7.09;72.86
1694;BME280;71975;47.068;15.408;2024-01-07T07:18:24;96064.13;;;7.08;72.71
1694;BME280;71975;47.068;15.408;2024-01-07T07:23:27;96063.50;;;7.00;73.31
1694;BME280;71975;47.068;15.408;2024-01-07T07:28:31;96073.38;;;7.07;72.18
1694;BME280;71975;47.068;15.408;2024-01-07T07:33:34;96068.38;;;7.05;72.04
1694;BME280;71975;47.068;15.408;2024-01-07T07:38:37;96074.06;;;6.91;72.76
1694;BME280;71975;47.068;15.408;2024-01-07T07:43:42;96071.22;;;7.18;71.49
1694;BME280;71975;47.068;15.408;2024-01-07T07:48:47;96078.28;;;7.12;70.83
1694;BME280;71975;47.068;15.408;2024-01-07T07:53:50;96081.75;;;7.48;78.39
1694;BME280;71975;47.068;15.408;2024-01-07T07:58:55;96086.19;;;7.74;74.49
1694;BME280;71975;47.068;15.408;2024-01-07T08:03:58;96091.47;;;7.42;69.60
1694;BME280;71975;47.068;15.408;2024-01-07T08:09:01;96099.72;;;7.35;68.81
1694;BME280;71975;47.068;15.408;2024-01-07T08:14:06;96096.88;;;7.42;69.34
1694;BME280;71975;47.068;15.408;2024-01-07T08:19:10;96104.56;;;7.24;68.79
1694;BME280;71975;47.068;15.408;2024-01-07T08:24:13;96110.28;;;7.26;68.09
1694;BME280;71975;47.068;15.408;2024-01-07T08:29:18;96115.50;;;7.33;68.64
1694;BME280;71975;47.068;15.408;2024-01-07T08:34:21;96109.22;;;7.20;68.04
1694;BME280;71975;47.068;15.408;2024-01-07T08:39:24;96117.03;;;7.34;68.41
1694;BME280;71975;47.068;15.408;2024-01-07T08:44:31;96122.19;;;7.25;67.95
1694;BME280;71975;47.068;15.408;2024-01-07T08:49:35;96130.75;;;7.20;68.19
1694;BME280;71975;47.068;15.408;2024-01-07T08:54:40;96137.38;;;7.15;68.26
1694;BME280;71975;47.068;15.408;2024-01-07T08:59:44;96136.47;;;7.22;68.21
1694;BME280;71975;47.068;15.408;2024-01-07T09:04:47;96147.19;;;7.25;66.67
1694;BME280;71975;47.068;15.408;2024-01-07T09:09:50;96153.63;;;7.12;67.74
1694;BME280;71975;47.068;15.408;2024-01-07T09:14:54;96151.88;;;7.21;67.09
1694;BME280;71975;47.068;15.408;2024-01-07T09:19:57;96167.28;;;7.21;66.83
1694;BME280;71975;47.068;15.408;2024-01-07T09:25:01;96164.91;;;7.23;66.55
1694;BME280;71975;47.068;15.408;2024-01-07T09:30:07;96165.53;;;7.11;66.59
1694;BME280;71975;47.068;15.408;2024-01-07T09:35:12;96164.91;;;7.23;65.64
1694;BME280;71975;47.068;15.408;2024-01-07T09:40:17;96167.13;;;7.28;64.70
1694;BME280;71975;47.068;15.408;2024-01-07T09:45:23;96169.13;;;7.04;64.94
1694;BME280;71975;47.068;15.408;2024-01-07T09:50:26;96171.97;;;7.17;64.11
1694;BME280;71975;47.068;15.408;2024-01-07T09:55:33;96162.44;;;7.32;64.19
1694;BME280;71975;47.068;15.408;2024-01-07T10:00:40;96167.75;;;7.35;63.28
1694;BME280;71975;47.068;15.408;2024-01-07T10:05:43;96166.72;;;7.49;62.81
1694;BME280;71975;47.068;15.408;2024-01-07T10:10:48;96160.66;;;7.45;62.70
1694;BME280;71975;47.068;15.408;2024-01-07T10:15:52;96163.69;;;7.47;61.77
1694;BME280;71975;47.068;15.408;2024-01-07T10:21:01;96157.13;;;7.48;61.94
1694;BME280;71975;47.068;15.408;2024-01-07T10:26:05;96158.97;;;7.51;61.56
1694;BME280;71975;47.068;15.408;2024-01-07T10:31:25;96152.00;;;7.54;60.35
1694;BME280;71975;47.068;15.408;2024-01-07T10:36:29;96148.91;;;7.55;60.20
1694;BME280;71975;47.068;15.408;2024-01-07T10:41:36;96166.03;;;7.65;59.58
1694;BME280;71975;47.068;15.408;2024-01-07T10:46:42;96163.81;;;7.79;59.63
1694;BME280;71975;47.068;15.408;2024-01-07T10:51:46;96173.88;;;7.75;59.41
1694;BME280;71975;47.068;15.408;2024-01-07T10:56:55;96159.28;;;7.73;59.25
1694;BME280;71975;47.068;15.408;2024-01-07T11:02:02;96164.31;;;7.90;58.87
1694;BME280;71975;47.068;15.408;2024-01-07T11:07:13;96158.94;;;7.90;58.50
1694;BME280;71975;47.068;15.408;2024-01-07T11:12:18;96161.13;;;7.95;57.89
1694;BME280;71975;47.068;15.408;2024-01-07T11:17:46;96163.50;;;7.93;57.08
1694;BME280;71975;47.068;15.408;2024-01-07T11:22:49;96152.16;;;8.18;55.50
1694;BME280;71975;47.068;15.408;2024-01-07T11:27:52;96149.53;;;8.15;55.98
1694;BME280;71975;47.068;15.408;2024-01-07T11:33:00;96150.25;;;8.35;55.90
1694;BME280;71975;47.068;15.408;2024-01-07T11:38:03;96161.56;;;8.30;55.13
1694;BME280;71975;47.068;15.408;2024-01-07T11:43:07;96149.31;;;8.74;57.09
1694;BME280;71975;47.068;15.408;2024-01-07T11:48:13;96144.28;;;8.59;54.06
1694;BME280;71975;47.068;15.408;2024-01-07T11:53:18;96151.34;;;8.53;53.45
1694;BME280;71975;47.068;15.408;2024-01-07T11:58:21;96152.44;;;8.56;54.10
1694;BME280;71975;47.068;15.408;2024-01-07T12:03:25;96149.31;;;8.74;53.41
1694;BME280;71975;47.068;15.408;2024-01-07T12:08:29;96145.38;;;8.62;52.60
1694;BME280;71975;47.068;15.408;2024-01-07T12:13:33;96145.78;;;8.60;52.40
1694;BME280;71975;47.068;15.408;2024-01-07T12:18:37;96144.47;;;8.52;53.03
1694;BME280;71975;47.068;15.408;2024-01-07T12:23:41;96148.84;;;8.46;51.92
1694;BME280;71975;47.068;15.408;2024-01-07T12:28:52;96148.06;;;8.62;51.70
1694;BME280;71975;47.068;15.408;2024-01-07T12:33:56;96138.63;;;8.54;52.08
1694;BME280;71975;47.068;15.408;2024-01-07T12:39:00;96143.34;;;8.66;50.86
1694;BME280;71975;47.068;15.408;2024-01-07T12:44:03;96144.19;;;8.63;50.60
1694;BME280;71975;47.068;15.408;2024-01-07T12:49:07;96140.66;;;8.50;50.89
1694;BME280;71975;47.068;15.408;2024-01-07T12:54:11;96147.31;;;8.45;50.22
1694;BME280;71975;47.068;15.408;2024-01-07T12:59:14;96151.47;;;8.50;50.61
1694;BME280;71975;47.068;15.408;2024-01-07T13:04:18;96163.91;;;8.60;50.65
1694;BME280;71975;47.068;15.408;2024-01-07T13:09:22;96168.97;;;8.58;50.09
1694;BME280;71975;47.068;15.408;2024-01-07T13:14:27;96174.47;;;8.54;49.47
1694;BME280;71975;47.068;15.408;2024-01-07T13:19:31;96171.25;;;8.59;50.37
1694;BME280;71975;47.068;15.408;2024-01-07T13:24:34;96167.47;;;8.57;50.02
1694;BME280;71975;47.068;15.408;2024-01-07T13:29:37;96174.19;;;8.65;49.74
1694;BME280;71975;47.068;15.408;2024-01-07T13:34:42;96182.63;;;8.51;49.64
1694;BME280;71975;47.068;15.408;2024-01-07T13:39:45;96183.47;;;8.48;49.92
1694;BME280;71975;47.068;15.408;2024-01-07T13:44:49;96193.75;;;8.53;49.48
1694;BME280;71975;47.068;15.408;2024-01-07T13:49:53;96209.41;;;8.42;50.06
1694;BME280;71975;47.068;15.408;2024-01-07T13:54:56;96206.69;;;8.26;49.83
1694;BME280;71975;47.068;15.408;2024-01-07T14:00:00;96210.41;;;8.32;49.32
1694;BME280;71975;47.068;15.408;2024-01-07T14:05:11;96213.53;;;8.30;49.78
1694;BME280;71975;47.068;15.408;2024-01-07T14:10:14;96220.53;;;8.28;49.18
1694;BME280;71975;47.068;15.408;2024-01-07T14:15:20;96219.94;;;8.17;49.30
1694;BME280;71975;47.068;15.408;2024-01-07T14:20:25;96225.91;;;8.28;49.20
1694;BME280;71975;47.068;15.408;2024-01-07T14:25:30;96235.09;;;8.30;49.45
1694;BME280;71975;47.068;15.408;2024-01-07T14:30:33;96239.03;;;8.26;48.92
1694;BME280;71975;47.068;15.408;2024-01-07T14:35:37;96243.72;;;8.22;49.16
1694;BME280;71975;47.068;15.408;2024-01-07T14:40:40;96246.75;;;8.24;48.18
1694;BME280;71975;47.068;15.408;2024-01-07T14:45:48;96256.25;;;8.12;48.42
1694;BME280;71975;47.068;15.408;2024-01-07T14:50:52;96258.00;;;8.02;48.17
1694;BME280;71975;47.068;15.408;2024-01-07T14:55:55;96260.03;;;8.15;48.28
1694;BME280;71975;47.068;15.408;2024-01-07T15:00:59;96268.28;;;8.08;47.82
1694;BME280;71975;47.068;15.408;2024-01-07T15:06:05;96289.84;;;7.88;48.35
1694;BME280;71975;47.068;15.408;2024-01-07T15:11:10;96291.78;;;7.87;48.77
1694;BME280;71975;47.068;15.408;2024-01-07T15:16:13;96278.91;;;7.95;47.95
1694;BME280;71975;47.068;15.408;2024-01-07T15:21:18;96308.41;;;7.82;48.04
1694;BME280;71975;47.068;15.408;2024-01-07T15:26:21;96303.16;;;7.75;49.15
1694;BME280;71975;47.068;15.408;2024-01-07T15:31:24;96305.66;;;7.66;48.79
1694;BME280;71975;47.068;15.408;2024-01-07T15:36:28;96297.22;;;7.64;49.02
1694;BME280;71975;47.068;15.408;2024-01-07T15:41:31;96298.81;;;7.62;56.14
1694;BME280;71975;47.068;15.408;2024-01-07T15:46:35;96301.47;;;7.42;48.50
1694;BME280;71975;47.068;15.408;2024-01-07T15:51:39;96316.69;;;7.29;48.89
